sensor_id;sensor_type;location;lat;lon;timestamp;pressure;altitude;pressure_sealevel;temperature;humidity
70229;BME280;57617;51.988;5.854;2023-03-19T00:01:09;100636.06;;;14.88;63.22
70229;BME280;57617;51.988;5.854;2023-03-19T00:03:35;100629.50;;;14.84;63.33
70229;BME280;57617;51.988;5.854;2023-03-19T00:06:01;100626.22;;;14.82;63.54
70229;BME280;57617;51.988;5.854;2023-03-19T00:08:26;100626.22;;;14.77;63.79
70229;BME280;57617;51.988;5.854;2023-03-19T00:10:52;100630.88;;;14.77;63.95
70229;BME280;57617;51.988;5.854;2023-03-19T00:13:18;100627.59;;;14.75;64.42
70229;BME280;57617;51.988;5.854;2023-03-19T00:15:44;100627.59;;;14.75;64.09
70229;BME280;57617;51.988;5.854;2023-03-19T00:18:09;100634.69;;;14.76;63.99
70229;BME280;57617;51.988;5.854;2023-03-19T00:20:35;100624.03;;;14.74;64.41
70229;BME280;57617;51.988;5.854;2023-03-19T00:23:00;100623.19;;;14.74;64.28
70229;BME280;57617;51.988;5.854;2023-03-19T00:25:26;100628.13;;;14.72;64.75
70229;BME280;57617;51.988;5.854;2023-03-19T00:27:51;100616.91;;;14.68;64.52
70229;BME280;57617;51.988;5.854;2023-03-19T00:30:18;100616.91;;;14.73;64.64
70229;BME280;57617;51.988;5.854;2023-03-19T00:32:43;100618.28;;;14.76;64.42
70229;BME280;57617;51.988;5.854;2023-03-19T00:35:09;100624.28;;;14.78;64.44
70229;BME280;57617;51.988;5.854;2023-03-19T00:37:35;100625.13;;;14.78;64.80
70229;BME280;57617;51.988;5.854;2023-03-19T00:40:01;100626.75;;;14.79;64.60
70229;BME280;57617;51.988;5.854;2023-03-19T00:42:28;100625.94;;;14.79;64.77
70229;BME280;57617;51.988;5.854;2023-03-19T00:44:53;100629.50;;;14.79;64.61
70229;BME280;57617;51.988;5.854;2023-03-19T00:47:18;100628.97;;;14.82;64.92
70229;BME280;57617;51.988;5.854;2023-03-19T00:49:44;100629.22;;;14.81;65.05
70229;BME280;57617;51.988;5.854;2023-03-19T00:52:09;100626.50;;;14.81;64.67
70229;BME280;57617;51.988;5.854;2023-03-19T00:54:35;100630.88;;;14.82;64.71
70229;BME280;57617;51.988;5.854;2023-03-19T00:57:00;100624.56;;;14.76;64.94
70229;BME280;57617;51.988;5.854;2023-03-19T00:59:25;100630.34;;;14.80;64.66
70229;BME280;57617;51.988;5.854;2023-03-19T01:01:51;100637.16;;;14.77;64.76
70229;BME280;57617;51.988;5.854;2023-03-19T01:04:17;100623.19;;;14.74;64.95
70229;BME280;57617;51.988;5.854;2023-03-19T01:06:43;100626.22;;;14.72;64.97
70229;BME280;57617;51.988;5.854;2023-03-19T01:09:09;100637.16;;;14.72;65.04
70229;BME280;57617;51.988;5.854;2023-03-19T01:11:34;100624.03;;;14.69;64.83
70229;BME280;57617;51.988;5.854;2023-03-19T01:14:01;100634.41;;;14.67;64.93
70229;BME280;57617;51.988;5.854;2023-03-19T01:16:27;100630.31;;;14.65;65.10
70229;BME280;57617;51.988;5.854;2023-03-19T01:18:52;100627.84;;;14.63;65.17
70229;BME280;57617;51.988;5.854;2023-03-19T01:21:18;100623.75;;;14.61;64.90
70229;BME280;57617;51.988;5.854;2023-03-19T01:23:43;100628.94;;;14.62;65.01
70229;BME280;57617;51.988;5.854;2023-03-19T01:26:09;100619.66;;;14.63;65.25
70229;BME280;57617;51.988;5.854;2023-03-19T01:28:34;100574.78;;;14.34;64.93
70229;BME280;57617;51.988;5.854;2023-03-19T01:31:05;100619.38;;;14.60;65.18
70229;BME280;57617;51.988;5.854;2023-03-19T01:33:30;100627.25;;;14.56;64.94
70229;BME280;57617;51.988;5.854;2023-03-19T01:35:57;100638.75;;;14.53;65.12
70229;BME280;57617;51.988;5.854;2023-03-19T01:38:23;100631.09;;;14.50;65.51
70229;BME280;57617;51.988;5.854;2023-03-19T01:40:49;100626.44;;;14.46;65.52
70229;BME280;57617;51.988;5.854;2023-03-19T01:43:20;100630.53;;;14.43;65.57
70229;BME280;57617;51.988;5.854;2023-03-19T01:45:48;100626.69;;;14.39;65.61
70229;BME280;57617;51.988;5.854;2023-03-19T01:51:01;100627.78;;;14.33;65.83
70229;BME280;57617;51.988;5.854;2023-03-19T01:53:30;100627.78;;;14.28;65.21
70229;BME280;57617;51.988;5.854;2023-03-19T01:56:17;100621.19;;;14.24;66.30
70229;BME280;57617;51.988;5.854;2023-03-19T01:58:45;100628.59;;;14.24;65.78
70229;BME280;57617;51.988;5.854;2023-03-19T02:01:12;100631.31;;;14.24;66.02
70229;BME280;57617;51.988;5.854;2023-03-19T02:03:38;100625.28;;;14.22;65.62
70229;BME280;57617;51.988;5.854;2023-03-19T02:06:05;100631.28;;;14.19;65.64
70229;BME280;57617;51.988;5.854;2023-03-19T02:08:31;100621.41;;;14.13;66.05
70229;BME280;57617;51.988;5.854;2023-03-19T02:10:57;100635.63;;;14.15;66.12
70229;BME280;57617;51.988;5.854;2023-03-19T02:13:25;100638.88;;;14.12;66.30
70229;BME280;57617;51.988;5.854;2023-03-19T02:15:52;100628.50;;;14.09;66.39
70229;BME280;57617;51.988;5.854;2023-03-19T02:18:18;100629.06;;;14.11;66.90
70229;BME280;57617;51.988;5.854;2023-03-19T02:20:56;100628.78;;;14.12;66.66
70229;BME280;57617;51.988;5.854;2023-03-19T02:23:36;100627.44;;;14.15;66.84
70229;BME280;57617;51.988;5.854;2023-03-19T02:26:06;100632.63;;;14.16;66.87
70229;BME280;57617;51.988;5.854;2023-03-19T02:28:32;100626.06;;;14.17;66.72
70229;BME280;57617;51.988;5.854;2023-03-19T02:30:58;100627.72;;;14.18;66.32
70229;BME280;57617;51.988;5.854;2023-03-19T02:33:24;100622.03;;;14.20;66.41
70229;BME280;57617;51.988;5.854;2023-03-19T02:35:51;100620.09;;;14.20;66.72
70229;BME280;57617;51.988;5.854;2023-03-19T02:38:17;100617.09;;;14.22;66.72
70229;BME280;57617;51.988;5.854;2023-03-19T02:40:50;100613.56;;;14.21;66.61
70229;BME280;57617;51.988;5.854;2023-03-19T02:43:16;100619.56;;;14.23;66.79
70229;BME280;57617;51.988;5.854;2023-03-19T02:45:41;100625.03;;;14.23;66.81
70229;BME280;57617;51.988;5.854;2023-03-19T02:48:07;100629.13;;;14.21;66.53
70229;BME280;57617;51.988;5.854;2023-03-19T02:50:32;100628.53;;;14.19;66.86
70229;BME280;57617;51.988;5.854;2023-03-19T02:52:57;100621.72;;;14.16;66.82
70229;BME280;57617;51.988;5.854;2023-03-19T02:55:22;100630.44;;;14.13;67.04
70229;BME280;57617;51.988;5.854;2023-03-19T02:57:48;100627.16;;;14.11;67.03
70229;BME280;57617;51.988;5.854;2023-03-19T03:00:14;100634.78;;;14.14;67.23
70229;BME280;57617;51.988;5.854;2023-03-19T03:02:41;100636.16;;;14.17;66.97
70229;BME280;57617;51.988;5.854;2023-03-19T03:05:08;100627.16;;;14.11;66.92
70229;BME280;57617;51.988;5.854;2023-03-19T03:07:34;100635.91;;;14.18;66.87
70229;BME280;57617;51.988;5.854;2023-03-19T03:09:59;100635.06;;;14.18;66.98
70229;BME280;57617;51.988;5.854;2023-03-19T03:12:24;100631.53;;;14.17;67.09
70229;BME280;57617;51.988;5.854;2023-03-19T03:14:50;100639.72;;;14.17;67.22
70229;BME280;57617;51.988;5.854;2023-03-19T03:17:16;100644.94;;;14.19;66.95
70229;BME280;57617;51.988;5.854;2023-03-19T03:19:41;100646.84;;;14.18;67.37
70229;BME280;57617;51.988;5.854;2023-03-19T03:22:07;100642.72;;;14.16;67.07
70229;BME280;57617;51.988;5.854;2023-03-19T03:24:32;100652.59;;;14.22;66.90
70229;BME280;57617;51.988;5.854;2023-03-19T03:26:58;100652.06;;;14.20;67.53
70229;BME280;57617;51.988;5.854;2023-03-19T03:29:23;100641.13;;;14.20;67.52
70229;BME280;57617;51.988;5.854;2023-03-19T03:31:49;100650.13;;;14.20;67.18
70229;BME280;57617;51.988;5.854;2023-03-19T03:34:15;100650.13;;;14.20;67.35
70229;BME280;57617;51.988;5.854;2023-03-19T03:36:40;100648.72;;;14.18;67.17
70229;BME280;57617;51.988;5.854;2023-03-19T03:39:05;100647.66;;;14.19;67.19
70229;BME280;57617;51.988;5.854;2023-03-19T03:41:31;100649.03;;;14.16;67.56
70229;BME280;57617;51.988;5.854;2023-03-19T03:43:56;100659.13;;;14.16;67.61
70229;BME280;57617;51.988;5.854;2023-03-19T03:46:22;100641.09;;;14.15;67.49
70229;BME280;57617;51.988;5.854;2023-03-19T03:48:48;100647.34;;;14.15;67.91
70229;BME280;57617;51.988;5.854;2023-03-19T03:51:15;100643.56;;;14.16;67.44
70229;BME280;57617;51.988;5.854;2023-03-19T03:53:41;100642.47;;;14.17;67.86
70229;BME280;57617;51.988;5.854;2023-03-19T03:56:07;100644.91;;;14.14;67.71
70229;BME280;57617;51.988;5.854;2023-03-19T03:58:32;100646.56;;;14.15;67.89
70229;BME280;57617;51.988;5.854;2023-03-19T04:00:57;100640.25;;;14.14;67.51
70229;BME280;57617;51.988;5.854;2023-03-19T04:03:23;100644.91;;;14.14;67.54
70229;BME280;57617;51.988;5.854;2023-03-19T04:05:49;100656.38;;;14.11;67.76
70229;BME280;57617;51.988;5.854;2023-03-19T04:08:15;100649.78;;;14.07;67.65
70229;BME280;57617;51.988;5.854;2023-03-19T04:10:41;100651.13;;;14.04;67.93
70229;BME280;57617;51.988;5.854;2023-03-19T04:13:08;100651.44;;;14.03;67.71
70229;BME280;57617;51.988;5.854;2023-03-19T04:15:34;100655.53;;;14.00;67.74
70229;BME280;57617;51.988;5.854;2023-03-19T04:17:59;100657.16;;;14.01;68.31
70229;BME280;57617;51.988;5.854;2023-03-19T04:20:25;100655.22;;;14.02;68.02
70229;BME280;57617;51.988;5.854;2023-03-19T04:22:50;100658.78;;;14.02;68.07
70229;BME280;57617;51.988;5.854;2023-03-19T04:25:16;100659.63;;;14.03;68.40
70229;BME280;57617;51.988;5.854;2023-03-19T04:27:42;100659.63;;;14.03;68.07
70229;BME280;57617;51.988;5.854;2023-03-19T04:30:08;100655.22;;;14.02;68.02
70229;BME280;57617;51.988;5.854;2023-03-19T04:32:34;100656.59;;;14.04;68.05
70229;BME280;57617;51.988;5.854;2023-03-19T04:35:00;100656.59;;;14.04;68.37
70229;BME280;57617;51.988;5.854;2023-03-19T04:37:25;100650.31;;;13.99;68.54
70229;BME280;57617;51.988;5.854;2023-03-19T04:39:51;100658.28;;;14.05;68.13
70229;BME280;57617;51.988;5.854;2023-03-19T04:42:18;100667.28;;;14.06;68.42
70229;BME280;57617;51.988;5.854;2023-03-19T04:44:43;100669.19;;;14.05;68.56
70229;BME280;57617;51.988;5.854;2023-03-19T04:47:09;100669.19;;;14.05;68.53
70229;BME280;57617;51.988;5.854;2023-03-19T04:49:34;100671.34;;;14.03;68.39
70229;BME280;57617;51.988;5.854;2023-03-19T04:52:01;100666.72;;;14.04;68.33
70229;BME280;57617;51.988;5.854;2023-03-19T04:54:26;100665.63;;;14.05;68.39
70229;BME280;57617;51.988;5.854;2023-03-19T04:56:52;100666.19;;;14.07;68.22
70229;BME280;57617;51.988;5.854;2023-03-19T04:59:18;100681.75;;;14.06;68.30
70229;BME280;57617;51.988;5.854;2023-03-19T05:01:43;100680.91;;;14.06;68.27
70229;BME280;57617;51.988;5.854;2023-03-19T05:04:08;100678.44;;;14.04;68.51
70229;BME280;57617;51.988;5.854;2023-03-19T05:06:35;100685.00;;;14.03;68.57
70229;BME280;57617;51.988;5.854;2023-03-19T05:09:01;100676.28;;;14.01;68.29
70229;BME280;57617;51.988;5.854;2023-03-19T05:11:26;100683.13;;;14.04;68.36
70229;BME280;57617;51.988;5.854;2023-03-19T05:13:52;100684.47;;;14.01;68.53
70229;BME280;57617;51.988;5.854;2023-03-19T05:16:17;100687.97;;;13.97;68.71
70229;BME280;57617;51.988;5.854;2023-03-19T05:18:42;100689.31;;;13.94;68.61
70229;BME280;57617;51.988;5.854;2023-03-19T05:21:10;100691.50;;;13.92;68.47
70229;BME280;57617;51.988;5.854;2023-03-19T05:23:36;100695.88;;;13.93;68.91
70229;BME280;57617;51.988;5.854;2023-03-19T05:26:01;100695.63;;;13.95;68.78
70229;BME280;57617;51.988;5.854;2023-03-19T05:28:26;100702.97;;;13.94;68.67
70229;BME280;57617;51.988;5.854;2023-03-19T05:30:52;100701.09;;;13.95;68.58
70229;BME280;57617;51.988;5.854;2023-03-19T05:33:17;100698.91;;;13.97;68.72
70229;BME280;57617;51.988;5.854;2023-03-19T05:35:43;100701.91;;;13.95;68.61
70229;BME280;57617;51.988;5.854;2023-03-19T05:38:08;100695.09;;;13.93;68.70
70229;BME280;57617;51.988;5.854;2023-03-19T05:40:35;100705.72;;;13.94;68.52
70229;BME280;57617;51.988;5.854;2023-03-19T05:43:00;100699.16;;;13.90;68.76
70229;BME280;57617;51.988;5.854;2023-03-19T05:45:26;100705.13;;;13.87;68.83
70229;BME280;57617;51.988;5.854;2023-03-19T05:47:51;100708.38;;;13.84;69.09
70229;BME280;57617;51.988;5.854;2023-03-19T05:50:17;100707.59;;;13.84;68.72
70229;BME280;57617;51.988;5.854;2023-03-19T05:52:43;100714.94;;;13.83;69.06
70229;BME280;57617;51.988;5.854;2023-03-19T05:55:08;100710.56;;;13.82;69.28
70229;BME280;57617;51.988;5.854;2023-03-19T05:57:35;100717.66;;;13.83;69.34
70229;BME280;57617;51.988;5.854;2023-03-19T06:00:00;100718.75;;;13.82;69.20
70229;BME280;57617;51.988;5.854;2023-03-19T06:02:26;100717.38;;;13.80;69.29
70229;BME280;57617;51.988;5.854;2023-03-19T06:04:51;100722.00;;;13.79;69.49
70229;BME280;57617;51.988;5.854;2023-03-19T06:07:16;100726.09;;;13.77;69.28
70229;BME280;57617;51.988;5.854;2023-03-19T06:09:42;100731.53;;;13.77;69.06
70229;BME280;57617;51.988;5.854;2023-03-19T06:12:07;100742.19;;;13.73;69.29
70229;BME280;57617;51.988;5.854;2023-03-19T06:14:33;100747.91;;;13.77;69.19
70229;BME280;57617;51.988;5.854;2023-03-19T06:16:58;100753.13;;;13.78;69.59
70229;BME280;57617;51.988;5.854;2023-03-19T06:19:23;100750.97;;;13.80;69.53
70229;BME280;57617;51.988;5.854;2023-03-19T06:21:48;100755.09;;;13.83;68.97
70229;BME280;57617;51.988;5.854;2023-03-19T06:24:14;100752.63;;;13.81;69.30
70229;BME280;57617;51.988;5.854;2023-03-19T06:26:39;100758.34;;;13.80;69.61
70229;BME280;57617;51.988;5.854;2023-03-19T06:29:05;100757.78;;;13.78;69.70
70229;BME280;57617;51.988;5.854;2023-03-19T06:31:30;100759.16;;;13.80;69.55
70229;BME280;57617;51.988;5.854;2023-03-19T06:33:56;100768.41;;;13.79;69.11
70229;BME280;57617;51.988;5.854;2023-03-19T06:36:21;100760.22;;;13.79;69.60
70229;BME280;57617;51.988;5.854;2023-03-19T06:38:46;100764.09;;;13.83;69.71
70229;BME280;57617;51.988;5.854;2023-03-19T06:41:12;100768.44;;;13.84;69.59
70229;BME280;57617;51.988;5.854;2023-03-19T06:43:37;100768.78;;;13.88;69.81
70229;BME280;57617;51.988;5.854;2023-03-19T06:46:05;100773.41;;;13.87;69.33
70229;BME280;57617;51.988;5.854;2023-03-19T06:48:31;100779.13;;;13.86;69.84
70229;BME280;57617;51.988;5.854;2023-03-19T06:50:56;100779.41;;;13.89;69.62
70229;BME280;57617;51.988;5.854;2023-03-19T06:53:22;100780.50;;;13.88;69.57
70229;BME280;57617;51.988;5.854;2023-03-19T06:55:47;100780.78;;;13.92;69.38
70229;BME280;57617;51.988;5.854;2023-03-19T06:58:12;100770.94;;;13.86;69.15
70229;BME280;57617;51.988;5.854;2023-03-19T07:00:38;100776.75;;;13.99;69.42
70229;BME280;57617;51.988;5.854;2023-03-19T07:03:03;100777.88;;;14.03;69.13
70229;BME280;57617;51.988;5.854;2023-03-19T07:05:28;100767.44;;;13.90;69.14
70229;BME280;57617;51.988;5.854;2023-03-19T07:07:54;100790.44;;;14.04;69.65
70229;BME280;57617;51.988;5.854;2023-03-19T07:10:19;100788.81;;;14.08;69.51
70229;BME280;57617;51.988;5.854;2023-03-19T07:12:44;100790.75;;;14.13;69.53
70229;BME280;57617;51.988;5.854;2023-03-19T07:15:10;100801.16;;;14.16;69.42
70229;BME280;57617;51.988;5.854;2023-03-19T07:17:35;100798.69;;;14.14;69.20
70229;BME280;57617;51.988;5.854;2023-03-19T07:20:01;100809.06;;;14.12;69.40
70229;BME280;57617;51.988;5.854;2023-03-19T07:22:26;100813.94;;;14.10;68.58
70229;BME280;57617;51.988;5.854;2023-03-19T07:24:51;100813.16;;;14.10;69.28
70229;BME280;57617;51.988;5.854;2023-03-19T07:27:17;100821.88;;;14.12;69.14
70229;BME280;57617;51.988;5.854;2023-03-19T07:29:42;100814.53;;;14.12;69.23
70229;BME280;57617;51.988;5.854;2023-03-19T07:32:09;100817.28;;;14.17;69.12
70229;BME280;57617;51.988;5.854;2023-03-19T07:34:34;100823.34;;;14.19;69.15
70229;BME280;57617;51.988;5.854;2023-03-19T07:37:00;100813.97;;;14.15;69.43
70229;BME280;57617;51.988;5.854;2023-03-19T07:39:25;100826.06;;;14.19;69.32
70229;BME280;57617;51.988;5.854;2023-03-19T07:41:51;100823.34;;;14.19;68.96
70229;BME280;57617;51.988;5.854;2023-03-19T07:44:16;100829.38;;;14.21;69.13
70229;BME280;57617;51.988;5.854;2023-03-19T07:46:41;100816.47;;;14.17;69.45
70229;BME280;57617;51.988;5.854;2023-03-19T07:49:07;100825.50;;;14.17;69.00
70229;BME280;57617;51.988;5.854;2023-03-19T07:51:33;100827.63;;;14.15;69.37
70229;BME280;57617;51.988;5.854;2023-03-19T07:53:59;100833.94;;;14.16;69.49
70229;BME280;57617;51.988;5.854;2023-03-19T07:56:24;100835.09;;;14.20;69.49
70229;BME280;57617;51.988;5.854;2023-03-19T07:58:50;100838.53;;;14.10;69.15
70229;BME280;57617;51.988;5.854;2023-03-19T08:01:16;100839.13;;;14.12;69.10
70229;BME280;57617;51.988;5.854;2023-03-19T08:03:41;100841.28;;;14.10;68.72
70229;BME280;57617;51.988;5.854;2023-03-19T08:06:07;100844.28;;;14.09;69.22
70229;BME280;57617;51.988;5.854;2023-03-19T08:08:32;100834.47;;;14.08;69.38
70229;BME280;57617;51.988;5.854;2023-03-19T08:10:59;100841.63;;;14.19;69.33
70229;BME280;57617;51.988;5.854;2023-03-19T08:13:25;100843.88;;;14.27;69.01
70229;BME280;57617;51.988;5.854;2023-03-19T08:15:50;100841.47;;;14.35;68.66
70229;BME280;57617;51.988;5.854;2023-03-19T08:18:17;100841.22;;;14.42;69.01
70229;BME280;57617;51.988;5.854;2023-03-19T08:20:43;100848.13;;;14.54;68.96
70229;BME280;57617;51.988;5.854;2023-03-19T08:23:09;100849.31;;;14.68;68.70
70229;BME280;57617;51.988;5.854;2023-03-19T08:25:36;100844.41;;;14.75;68.38
70229;BME280;57617;51.988;5.854;2023-03-19T08:28:01;100860.06;;;15.00;68.77
70229;BME280;57617;51.988;5.854;2023-03-19T08:30:27;100864.78;;;15.14;68.57
70229;BME280;57617;51.988;5.854;2023-03-19T08:32:52;100858.56;;;15.34;68.13
70229;BME280;57617;51.988;5.854;2023-03-19T08:35:18;100855.31;;;15.42;67.04
70229;BME280;57617;51.988;5.854;2023-03-19T08:37:43;100858.06;;;15.42;66.77
70229;BME280;57617;51.988;5.854;2023-03-19T08:40:09;100865.44;;;15.46;66.95
70229;BME280;57617;51.988;5.854;2023-03-19T08:42:34;100858.59;;;15.49;66.53
70229;BME280;57617;51.988;5.854;2023-03-19T08:45:00;100863.56;;;15.52;66.53
70229;BME280;57617;51.988;5.854;2023-03-19T08:47:25;100864.34;;;15.47;66.31
70229;BME280;57617;51.988;5.854;2023-03-19T08:49:51;100872.84;;;15.51;65.99
70229;BME280;57617;51.988;5.854;2023-03-19T08:52:17;100873.13;;;15.44;65.01
70229;BME280;57617;51.988;5.854;2023-03-19T08:54:43;100874.19;;;15.43;65.78
70229;BME280;57617;51.988;5.854;2023-03-19T08:57:08;100881.59;;;15.43;65.78
70229;BME280;57617;51.988;5.854;2023-03-19T08:59:34;100889.53;;;15.44;65.84
70229;BME280;57617;51.988;5.854;2023-03-19T09:01:59;100887.91;;;15.53;65.68
70229;BME280;57617;51.988;5.854;2023-03-19T09:04:24;100893.13;;;15.65;65.04
70229;BME280;57617;51.988;5.854;2023-03-19T09:06:50;100892.03;;;15.76;64.91
70229;BME280;57617;51.988;5.854;2023-03-19T09:09:19;100895.63;;;15.86;64.94
70229;BME280;57617;51.988;5.854;2023-03-19T09:11:46;100898.91;;;15.93;64.63
70229;BME280;57617;51.988;5.854;2023-03-19T09:14:12;100900.00;;;16.07;64.33
70229;BME280;57617;51.988;5.854;2023-03-19T09:16:38;100896.16;;;16.13;64.35
70229;BME280;57617;51.988;5.854;2023-03-19T09:19:04;100904.63;;;16.22;64.14
70229;BME280;57617;51.988;5.854;2023-03-19T09:21:30;100892.56;;;16.28;63.81
70229;BME280;57617;51.988;5.854;2023-03-19T09:23:55;100899.41;;;16.35;63.59
70229;BME280;57617;51.988;5.854;2023-03-19T09:26:21;100895.59;;;16.52;63.69
70229;BME280;57617;51.988;5.854;2023-03-19T09:28:46;100903.22;;;16.69;63.07
70229;BME280;57617;51.988;5.854;2023-03-19T09:31:11;100897.72;;;16.74;62.93
70229;BME280;57617;51.988;5.854;2023-03-19T09:33:37;100900.44;;;16.84;62.61
70229;BME280;57617;51.988;5.854;2023-03-19T09:36:02;100904.25;;;16.93;62.44
70229;BME280;57617;51.988;5.854;2023-03-19T09:38:27;100909.44;;;17.05;62.36
70229;BME280;57617;51.988;5.854;2023-03-19T09:43:57;100906.97;;;17.03;60.62
70229;BME280;57617;51.988;5.854;2023-03-19T09:46:29;100904.22;;;17.03;60.97
70229;BME280;57617;51.988;5.854;2023-03-19T09:49:21;100904.19;;;17.08;60.27
70229;BME280;57617;51.988;5.854;2023-03-19T09:51:54;100908.00;;;17.12;61.16
70229;BME280;57617;51.988;5.854;2023-03-19T09:56:52;100922.50;;;17.23;60.98
70229;BME280;57617;51.988;5.854;2023-03-19T09:59:21;100920.56;;;17.28;60.72
70229;BME280;57617;51.988;5.854;2023-03-19T10:01:53;100916.75;;;17.24;60.42
70229;BME280;57617;51.988;5.854;2023-03-19T10:17:55;100942.16;;;17.93;59.78
70229;BME280;57617;51.988;5.854;2023-03-19T10:20:35;100940.19;;;18.04;58.88
70229;BME280;57617;51.988;5.854;2023-03-19T10:23:12;100942.97;;;17.99;58.57
70229;BME280;57617;51.988;5.854;2023-03-19T10:25:44;100939.41;;;17.93;58.80
70229;BME280;57617;51.988;5.854;2023-03-19T10:28:15;100942.97;;;17.99;58.62
70229;BME280;57617;51.988;5.854;2023-03-19T10:30:44;100939.06;;;18.05;58.80
70229;BME280;57617;51.988;5.854;2023-03-19T10:33:25;100943.97;;;18.13;58.17
70229;BME280;57617;51.988;5.854;2023-03-19T10:35:57;100944.25;;;18.12;58.07
70229;BME280;57617;51.988;5.854;2023-03-19T10:38:26;100951.91;;;18.14;58.22
70229;BME280;57617;51.988;5.854;2023-03-19T10:44:01;100946.00;;;18.31;57.77
70229;BME280;57617;51.988;5.854;2023-03-19T10:46:27;100944.91;;;18.32;57.70
70229;BME280;57617;51.988;5.854;2023-03-19T10:48:52;100947.41;;;18.28;57.91
70229;BME280;57617;51.988;5.854;2023-03-19T10:51:23;100953.50;;;18.26;57.20
70229;BME280;57617;51.988;5.854;2023-03-19T10:53:52;100959.56;;;18.23;57.63
70229;BME280;57617;51.988;5.854;2023-03-19T10:59:02;100961.50;;;18.17;56.77
70229;BME280;57617;51.988;5.854;2023-03-19T11:01:34;100957.94;;;18.17;57.05
70229;BME280;57617;51.988;5.854;2023-03-19T11:04:02;100955.19;;;18.17;57.35
70229;BME280;57617;51.988;5.854;2023-03-19T11:06:36;100962.34;;;18.17;57.48
70229;BME280;57617;51.988;5.854;2023-03-19T11:09:17;100962.56;;;18.21;56.45
70229;BME280;57617;51.988;5.854;2023-03-19T11:11:48;100955.16;;;18.22;56.81
70229;BME280;57617;51.988;5.854;2023-03-19T11:14:18;100960.63;;;18.27;56.77
70229;BME280;57617;51.988;5.854;2023-03-19T11:16:46;100962.25;;;18.33;57.15
70229;BME280;57617;51.988;5.854;2023-03-19T11:19:19;100965.75;;;18.38;56.04
70229;BME280;57617;51.988;5.854;2023-03-19T11:21:57;100973.69;;;18.45;55.98
70229;BME280;57617;51.988;5.854;2023-03-19T11:24:25;100964.13;;;18.37;56.62
70229;BME280;57617;51.988;5.854;2023-03-19T11:26:54;100973.41;;;18.46;56.28
70229;BME280;57617;51.988;5.854;2023-03-19T11:29:21;100974.75;;;18.49;56.50
70229;BME280;57617;51.988;5.854;2023-03-19T11:32:06;100974.66;;;18.59;55.99
70229;BME280;57617;51.988;5.854;2023-03-19T11:34:53;100973.22;;;18.66;55.65
70229;BME280;57617;51.988;5.854;2023-03-19T11:37:36;100971.53;;;18.70;55.65
70229;BME280;57617;51.988;5.854;2023-03-19T11:45:29;100976.69;;;19.05;55.51
70229;BME280;57617;51.988;5.854;2023-03-19T11:50:25;100987.91;;;19.09;55.49
70229;BME280;57617;51.988;5.854;2023-03-19T11:53:09;100985.84;;;18.96;54.77
70229;BME280;57617;51.988;5.854;2023-03-19T11:55:42;100986.59;;;18.78;55.65
70229;BME280;57617;51.988;5.854;2023-03-19T11:58:34;100984.00;;;18.63;55.44
70229;BME280;57617;51.988;5.854;2023-03-19T12:09:45;101008.09;;;17.98;56.21
70229;BME280;57617;51.988;5.854;2023-03-19T12:12:25;101003.81;;;17.83;56.57
70229;BME280;57617;51.988;5.854;2023-03-19T12:15:08;101009.91;;;17.75;56.56
70229;BME280;57617;51.988;5.854;2023-03-19T12:17:43;101010.50;;;17.67;56.88
70229;BME280;57617;51.988;5.854;2023-03-19T12:20:24;101007.50;;;17.63;56.91
70229;BME280;57617;51.988;5.854;2023-03-19T12:22:59;101003.63;;;17.64;57.05
70229;BME280;57617;51.988;5.854;2023-03-19T12:31:29;100998.59;;;17.81;56.66
70229;BME280;57617;51.988;5.854;2023-03-19T12:36:40;101005.59;;;18.02;56.27
70229;BME280;57617;51.988;5.854;2023-03-19T12:39:15;101003.19;;;17.96;56.22
70229;BME280;57617;51.988;5.854;2023-03-19T12:41:44;101003.22;;;17.91;56.59
70229;BME280;57617;51.988;5.854;2023-03-19T12:44:41;101003.00;;;17.82;55.95
70229;BME280;57617;51.988;5.854;2023-03-19T12:47:24;101001.38;;;17.76;56.71
70229;BME280;57617;51.988;5.854;2023-03-19T12:49:58;101009.56;;;17.86;56.61
70229;BME280;57617;51.988;5.854;2023-03-19T12:52:37;101003.25;;;17.86;56.46
70229;BME280;57617;51.988;5.854;2023-03-19T12:58:07;101008.72;;;17.91;56.09
70229;BME280;57617;51.988;5.854;2023-03-19T13:00:47;101004.88;;;17.87;56.21
70229;BME280;57617;51.988;5.854;2023-03-19T13:03:35;101004.28;;;17.94;56.62
70229;BME280;57617;51.988;5.854;2023-03-19T13:06:31;101004.53;;;18.03;56.26
70229;BME280;57617;51.988;5.854;2023-03-19T13:09:12;100994.56;;;18.07;55.96
70229;BME280;57617;51.988;5.854;2023-03-19T13:11:51;101004.69;;;18.17;55.12
70229;BME280;57617;51.988;5.854;2023-03-19T13:14:25;101006.56;;;18.21;55.81
70229;BME280;57617;51.988;5.854;2023-03-19T13:19:49;101004.03;;;18.35;55.79
70229;BME280;57617;51.988;5.854;2023-03-19T13:22:27;101005.53;;;18.51;55.03
70229;BME280;57617;51.988;5.854;2023-03-19T13:24:55;100997.78;;;18.58;54.63
70229;BME280;57617;51.988;5.854;2023-03-19T13:27:33;101002.59;;;18.71;54.79
70229;BME280;57617;51.988;5.854;2023-03-19T13:32:38;100965.34;;;18.55;54.41
70229;BME280;57617;51.988;5.854;2023-03-19T13:35:22;100968.00;;;18.65;54.34
70229;BME280;57617;51.988;5.854;2023-03-19T13:37:55;100991.88;;;18.74;53.39
70229;BME280;57617;51.988;5.854;2023-03-19T13:46:03;101009.03;;;18.90;53.81
70229;BME280;57617;51.988;5.854;2023-03-19T13:51:03;101010.25;;;18.79;53.38
70229;BME280;57617;51.988;5.854;2023-03-19T13:56:00;101007.63;;;18.64;53.88
70229;BME280;57617;51.988;5.854;2023-03-19T14:00:56;101013.75;;;18.56;53.62
70229;BME280;57617;51.988;5.854;2023-03-19T14:03:30;101015.94;;;18.59;52.95
70229;BME280;57617;51.988;5.854;2023-03-19T14:05:56;101019.53;;;18.59;53.68
70229;BME280;57617;51.988;5.854;2023-03-19T14:08:26;101012.91;;;18.60;53.82